Flight Track Log - Related Links

Times and Time Zones

All times are in EDT time to prevent confusion due to time zone crossing. See the N42JD flight status page for this flight to view local times or setup timezone preferences in your user account.

Time Position Orientation Groundspeed Altitude Reporting Facility
EDT Latitude Longitude Course Direction KTS MPH feet Rate Location/Type
Wed 09:41:07 AM 32.3703 -96.7617 100° East 176 203 5,600  Level Fort Worth Center
Wed 09:42:07 AM 32.3722 -96.7147 87° East 165 190 5,600  Level Fort Worth Center
Wed 09:43:07 AM 32.3719 -96.6583 90° East 160 184 5,600  Level Fort Worth Center
Wed 09:44:07 AM 32.3736 -96.6114 88° East 160 184 5,600  Level Fort Worth Center
Wed 09:45:07 AM 32.3733 -96.5525 90° East 160 184 5,600  Level Fort Worth Center
Wed 09:46:00 AM 32.6606 -96.3511 100° East  Level Estimated
Wed 09:46:07 AM 32.3731 -96.5081 90° East 160 184 5,600  Level Fort Worth Center
Wed 09:47:07 AM 32.3744 -96.4467 88° East 160 184 5,600  Level Fort Worth Center
Wed 09:48:07 AM 32.3764 -96.3975 87° East 160 184 5,600  Level Fort Worth Center
Wed 09:49:07 AM 32.3758 -96.3408 91° East 160 184 5,600  Level Fort Worth Center
Wed 09:50:07 AM 32.3775 -96.2917 88° East 160 184 5,600  Level Fort Worth Center
Wed 09:51:07 AM 32.3789 -96.2303 88° East 160 184 5,600  Level Fort Worth Center
Wed 09:52:07 AM 32.3786 -96.1811 90° East 160 184 5,600  Level Fort Worth Center
Wed 09:53:07 AM 32.3800 -96.1219 88° East 160 184 5,600 -50 Level Fort Worth Center
Wed 09:54:07 AM 32.3794 -96.0778 91° East 160 184 5,500  Descending Fort Worth Center
Wed 09:55:07 AM 32.3789 -96.0161 91° East 160 184 5,600 50 Climbing Fort Worth Center
Wed 09:56:07 AM 32.3783 -95.9594 91° East 160 184 5,600  Level Fort Worth Center
Wed 09:57:07 AM 32.3778 -95.9081 91° East 160 184 5,600  Level Fort Worth Center
Wed 09:58:07 AM 32.3811 -95.8514 86° East 160 184 5,600  Level Fort Worth Center
Wed 09:59:07 AM 32.3803 -95.7922 91° East 160 184 5,600  Level Fort Worth Center
Wed 10:00:07 AM 32.3819 -95.7406 88° East 160 184 5,600  Level Fort Worth Center
Wed 10:01:07 AM 32.3811 -95.6889 91° East 160 184 5,600  Level Fort Worth Center
Wed 10:02:07 AM 32.3825 -95.6300 88° East 160 184 5,600  Level Fort Worth Center
Wed 10:03:07 AM 32.3836 -95.5781 89° East 160 184 5,600  Level Fort Worth Center
Wed 10:04:07 AM 32.3828 -95.5217 91° East 160 184 5,600  Level Fort Worth Center
Wed 10:05:07 AM 32.3800 -95.4675 93° East 160 184 5,600  Level Fort Worth Center
Wed 10:06:07 AM 32.3792 -95.4086 91° East 160 184 5,600  Level Fort Worth Center
Wed 10:07:07 AM 32.3822 -95.3544 86° East 160 184 5,600 -50 Level Fort Worth Center
Wed 10:08:07 AM 32.3814 -95.3003 91° East 160 184 5,500 -250 Descending Fort Worth Center
Wed 10:09:07 AM 32.3825 -95.2436 89° East 160 184 5,100 -350 Descending Fort Worth Center
Wed 10:10:07 AM 32.3858 -95.1844 86° East 160 184 4,800 -400 Descending Fort Worth Center
Wed 10:11:07 AM 32.3847 -95.1231 91° East 171 197 4,300 -500 Descending Fort Worth Center
Wed 10:13:00 AM 32.3833 -95.0335 90° East  Level FlightAware Approximate
Wed 10:20:00 AM 32.3840 -94.7115 90° East  Level Estimated
Wed 10:21:00 AM 32.3840 -94.7115 90° East  Level Estimated
Wed 10:22:00 AM 32.3840 -94.7115 90° East  Level Estimated
Wed 10:23:00 AM 32.3840 -94.7115 90° East  Level Estimated
Wed 10:24:00 AM 32.3840 -94.7115 90° East  Level Estimated
Wed 10:25:00 AM 32.3840 -94.7115 90° East  Level Estimated
Wed 10:26:00 AM 32.3840 -94.7115 90° East  Level Estimated
Wed 10:27:00 AM 32.3840 -94.7115 90° East  Level Estimated
Wed 10:28:00 AM 32.3840 -94.7115 90° East  Level Estimated

Login

Don't have an account? Register now (free) for customized features, flight alerts, and more!